Time;durP1;ratioP1;P1;durP2;ratioP2;P2;SDS_P1;SDS_P2;PMS_P1;PMS_P2;Temp;Humidity;BMP_temperature;BMP_pressure;BME280_temperature;BME280_humidity;BME280_pressure;Samples;Min_cycle;Max_cycle;Signal;HPM_P1;HPM_P2
2021/04/29 00:01:06;;;;;;;14.55;10.55;;;;;;;;;;4953451;29;20043;-73
2021/04/29 00:03:36;;;;;;;15.93;11.73;;;;;;;;;;4954470;29;20051;-73
2021/04/29 00:06:03;;;;;;;17.70;11.50;;;;;;;;;;4952779;29;20422;-73
2021/04/29 00:08:30;;;;;;;15.70;11.80;;;;;;;;;;4937362;29;20054;-73
2021/04/29 00:10:56;;;;;;;13.23;11.02;;;;;;;;;;4954321;29;20083;-73
2021/04/29 00:13:22;;;;;;;14.90;11.07;;;;;;;;;;4937411;29;20138;-74
2021/04/29 00:15:48;;;;;;;17.58;10.27;;;;;;;;;;4953892;29;20047;-74
2021/04/29 00:18:15;;;;;;;15.23;11.00;;;;;;;;;;4954313;29;20188;-73
2021/04/29 00:20:42;;;;;;;16.00;11.45;;;;;;;;;;4937278;29;20512;-74
2021/04/29 00:23:08;;;;;;;15.40;11.32;;;;;;;;;;4953460;28;20086;-73
2021/04/29 00:25:34;;;;;;;12.75;10.23;;;;;;;;;;4953529;29;20063;-73
2021/04/29 00:28:00;;;;;;;16.83;11.68;;;;;;;;;;4953109;29;20047;-74
2021/04/29 00:30:26;;;;;;;17.90;12.20;;;;;;;;;;4936837;29;20098;-74
2021/04/29 00:32:52;;;;;;;14.48;11.20;;;;;;;;;;4936775;29;20086;-74
2021/04/29 00:35:19;;;;;;;16.17;12.25;;;;;;;;;;4953558;29;20047;-73
2021/04/29 00:37:47;;;;;;;16.52;12.80;;;;;;;;;;4954184;29;20106;-74
2021/04/29 00:40:14;;;;;;;15.43;11.70;;;;;;;;;;4968557;28;20118;-73
2021/04/29 00:42:41;;;;;;;16.52;12.10;;;;;;;;;;4954162;29;20094;-73
2021/04/29 00:45:10;;;;;;;20.35;12.70;;;;;;;;;;4953636;29;20498;-74
2021/04/29 00:47:37;;;;;;;15.27;12.38;;;;;;;;;;4953440;29;20051;-74
2021/04/29 00:50:05;;;;;;;18.23;13.82;;;;;;;;;;4952694;29;20106;-73
2021/04/29 00:52:31;;;;;;;19.77;13.43;;;;;;;;;;4953756;29;20470;-74
2021/04/29 00:54:57;;;;;;;17.75;12.80;;;;;;;;;;4953694;29;20118;-74
2021/04/29 00:57:25;;;;;;;17.90;13.60;;;;;;;;;;4952879;29;20422;-74
2021/04/29 00:59:54;;;;;;;18.15;13.55;;;;;;;;;;4936875;29;20055;-73
2021/04/29 01:02:23;;;;;;;18.17;13.50;;;;;;;;;;4936525;29;20079;-74
2021/04/29 01:05:01;;;;;;;20.00;14.27;;;;;;;;;;4953668;29;20055;-74
2021/04/29 01:07:28;;;;;;;16.15;14.15;;;;;;;;;;4951017;29;20473;-74
2021/04/29 01:09:59;;;;;;;17.13;14.00;;;;;;;;;;4936659;29;20067;-74
2021/04/29 01:12:42;;;;;;;18.02;14.63;;;;;;;;;;4936389;29;20079;-73
2021/04/29 01:15:09;;;;;;;21.98;14.93;;;;;;;;;;4952287;29;20048;-74
2021/04/29 01:17:35;;;;;;;20.52;15.18;;;;;;;;;;4936052;29;20090;-74
2021/04/29 01:20:09;;;;;;;23.55;16.35;;;;;;;;;;4952355;29;20086;-73
2021/04/29 01:22:40;;;;;;;20.75;15.38;;;;;;;;;;4936238;29;20078;-74
2021/04/29 01:25:10;;;;;;;24.73;16.98;;;;;;;;;;4936893;29;20046;-73
2021/04/29 01:27:36;;;;;;;20.17;15.15;;;;;;;;;;4937162;29;20428;-74
2021/04/29 01:30:07;;;;;;;23.85;16.15;;;;;;;;;;4952456;29;20421;-73
2021/04/29 01:32:34;;;;;;;27.98;15.93;;;;;;;;;;4953222;29;20043;-74
2021/04/29 01:35:00;;;;;;;19.55;15.38;;;;;;;;;;4937592;29;20477;-74
2021/04/29 01:37:27;;;;;;;22.42;15.63;;;;;;;;;;4939779;29;20118;-73
2021/04/29 01:39:53;;;;;;;21.40;16.15;;;;;;;;;;4940892;29;20055;-74
2021/04/29 01:42:21;;;;;;;20.42;15.10;;;;;;;;;;4939714;29;20083;-74
2021/04/29 01:44:47;;;;;;;21.95;16.00;;;;;;;;;;4940150;29;20059;-74
2021/04/29 01:47:13;;;;;;;19.08;14.98;;;;;;;;;;4955145;29;20055;-74
2021/04/29 01:49:41;;;;;;;22.38;16.52;;;;;;;;;;4940188;29;20106;-74
2021/04/29 01:52:09;;;;;;;21.95;14.95;;;;;;;;;;4955609;29;20490;-73
2021/04/29 01:54:37;;;;;;;24.33;15.85;;;;;;;;;;4956995;29;20055;-73
2021/04/29 01:57:04;;;;;;;20.27;14.63;;;;;;;;;;4955140;29;20106;-74
2021/04/29 01:59:30;;;;;;;20.05;15.02;;;;;;;;;;4939723;29;20090;-74
2021/04/29 02:01:56;;;;;;;20.63;15.85;;;;;;;;;;4939786;29;20079;-74
2021/04/29 02:04:24;;;;;;;27.23;16.73;;;;;;;;;;4956699;29;20058;-74
2021/04/29 02:06:50;;;;;;;19.40;15.38;;;;;;;;;;4956120;29;20047;-74
2021/04/29 02:09:16;;;;;;;22.75;16.35;;;;;;;;;;4956676;29;20056;-73
2021/04/29 02:11:47;;;;;;;21.02;15.32;;;;;;;;;;4939410;29;20391;-74
2021/04/29 02:14:13;;;;;;;21.73;15.95;;;;;;;;;;4955435;29;20059;-74
2021/04/29 02:16:42;;;;;;;17.00;15.10;;;;;;;;;;4938915;29;20055;-74
2021/04/29 02:19:08;;;;;;;22.13;15.80;;;;;;;;;;4955611;29;20102;-74
2021/04/29 02:21:37;;;;;;;21.73;16.48;;;;;;;;;;4956124;29;20047;-74
2021/04/29 02:24:04;;;;;;;23.48;16.63;;;;;;;;;;4939250;29;20103;-74
2021/04/29 02:26:31;;;;;;;23.98;17.70;;;;;;;;;;4938395;29;20106;-74
2021/04/29 02:28:57;;;;;;;23.63;16.55;;;;;;;;;;4939414;29;20091;-73
2021/04/29 02:31:23;;;;;;;26.35;16.88;;;;;;;;;;4938995;29;20047;-74
2021/04/29 02:33:51;;;;;;;22.95;17.02;;;;;;;;;;4938562;29;20075;-74
2021/04/29 02:36:17;;;;;;;25.88;16.88;;;;;;;;;;4951001;29;20118;-74
2021/04/29 02:38:43;;;;;;;24.48;16.60;;;;;;;;;;4951957;29;20106;-74
2021/04/29 02:41:10;;;;;;;23.00;16.52;;;;;;;;;;4951522;29;20095;-73
2021/04/29 02:43:37;;;;;;;20.55;16.85;;;;;;;;;;4951572;29;20471;-74
2021/04/29 02:46:03;;;;;;;22.60;15.60;;;;;;;;;;4944140;28;20055;-74
2021/04/29 02:48:29;;;;;;;21.50;16.35;;;;;;;;;;4955778;29;20059;-74
2021/04/29 02:50:58;;;;;;;22.50;15.00;;;;;;;;;;4954616;29;20344;-74
2021/04/29 02:53:24;;;;;;;22.95;15.90;;;;;;;;;;4954289;29;20059;-74
2021/04/29 02:55:50;;;;;;;18.17;13.10;;;;;;;;;;4955633;29;20055;-74
2021/04/29 02:58:17;;;;;;;18.13;11.48;;;;;;;;;;4938654;29;20047;-74
2021/04/29 03:00:44;;;;;;;8.57;6.88;;;;;;;;;;4938786;29;20051;-74
2021/04/29 03:03:11;;;;;;;7.53;6.45;;;;;;;;;;4955750;29;20184;-74
2021/04/29 03:05:38;;;;;;;4.45;3.83;;;;;;;;;;4969688;28;20090;-74
2021/04/29 03:08:04;;;;;;;4.32;3.30;;;;;;;;;;4955587;29;20055;-73
2021/04/29 03:10:30;;;;;;;4.47;3.30;;;;;;;;;;4954270;29;20109;-74
2021/04/29 03:12:57;;;;;;;5.75;3.40;;;;;;;;;;4955447;29;20095;-74
2021/04/29 03:15:23;;;;;;;4.50;3.70;;;;;;;;;;4937854;29;20513;-74
2021/04/29 03:17:49;;;;;;;5.43;3.20;;;;;;;;;;4970488;28;20086;-74
2021/04/29 03:20:34;;;;;;;4.45;3.67;;;;;;;;;;4955469;29;20147;-74
2021/04/29 03:23:00;;;;;;;4.38;3.67;;;;;;;;;;4955317;29;20051;-74
2021/04/29 03:25:26;;;;;;;4.78;3.70;;;;;;;;;;4954660;29;20098;-74
2021/04/29 03:27:54;;;;;;;4.60;3.53;;;;;;;;;;4938442;29;20090;-74
2021/04/29 03:30:21;;;;;;;4.75;3.72;;;;;;;;;;4955154;29;20051;-74
2021/04/29 03:32:47;;;;;;;4.38;3.90;;;;;;;;;;4955083;29;20047;-74
2021/04/29 03:35:14;;;;;;;4.85;3.83;;;;;;;;;;4953423;29;20051;-74
2021/04/29 03:37:40;;;;;;;4.18;3.75;;;;;;;;;;4954869;29;20082;-74
2021/04/29 03:40:07;;;;;;;4.05;3.53;;;;;;;;;;4954942;29;20079;-74
2021/04/29 03:42:34;;;;;;;3.67;3.22;;;;;;;;;;4938464;29;20102;-74
2021/04/29 03:45:00;;;;;;;3.60;3.30;;;;;;;;;;4954752;29;20051;-74
2021/04/29 03:47:26;;;;;;;3.10;2.80;;;;;;;;;;4919774;29;20048;-74
2021/04/29 03:49:53;;;;;;;3.47;2.90;;;;;;;;;;4935972;29;20070;-73
2021/04/29 03:52:19;;;;;;;3.45;3.00;;;;;;;;;;4935706;29;20044;-74
2021/04/29 03:54:45;;;;;;;4.25;2.88;;;;;;;;;;4918741;29;20124;-73
2021/04/29 03:57:11;;;;;;;3.38;2.55;;;;;;;;;;4935183;28;20079;-73
2021/04/29 03:59:37;;;;;;;5.38;2.40;;;;;;;;;;4955050;29;20059;-73
2021/04/29 04:02:04;;;;;;;2.92;2.50;;;;;;;;;;4955077;29;20454;-74
2021/04/29 04:04:30;;;;;;;3.67;2.55;;;;;;;;;;4954132;29;20051;-74
2021/04/29 04:06:56;;;;;;;2.88;2.63;;;;;;;;;;4954216;29;20399;-75
2021/04/29 04:09:22;;;;;;;1.90;1.75;;;;;;;;;;4954670;29;20055;-74
2021/04/29 04:11:49;;;;;;;5.10;2.00;;;;;;;;;;4954505;29;20089;-74
2021/04/29 04:14:15;;;;;;;2.50;2.10;;;;;;;;;;4953580;29;20055;-74
2021/04/29 04:16:41;;;;;;;1.95;1.80;;;;;;;;;;4953872;29;20051;-74
2021/04/29 04:19:07;;;;;;;3.05;1.85;;;;;;;;;;4937545;29;20083;-75
2021/04/29 04:21:33;;;;;;;2.25;1.80;;;;;;;;;;4954410;29;20055;-75
2021/04/29 04:23:59;;;;;;;2.95;1.83;;;;;;;;;;4953296;29;20102;-75
2021/04/29 04:26:25;;;;;;;2.92;1.88;;;;;;;;;;4952240;29;20102;-74
2021/04/29 04:28:51;;;;;;;1.80;1.70;;;;;;;;;;4954190;29;20051;-75
2021/04/29 04:31:17;;;;;;;3.35;2.25;;;;;;;;;;4937108;29;20553;-75
2021/04/29 04:33:43;;;;;;;3.85;2.22;;;;;;;;;;4954299;29;20047;-75
2021/04/29 04:36:09;;;;;;;3.00;1.90;;;;;;;;;;4953652;29;20047;-75
2021/04/29 04:38:36;;;;;;;3.60;1.90;;;;;;;;;;4954174;29;20051;-75
2021/04/29 04:41:03;;;;;;;2.15;1.80;;;;;;;;;;4953827;29;20047;-75
2021/04/29 04:43:29;;;;;;;3.03;1.67;;;;;;;;;;4937270;29;20490;-74
2021/04/29 04:45:56;;;;;;;2.03;1.80;;;;;;;;;;4936596;29;20130;-74
2021/04/29 04:48:22;;;;;;;3.08;1.70;;;;;;;;;;4954378;29;20098;-75
2021/04/29 04:50:48;;;;;;;2.60;1.77;;;;;;;;;;4954203;29;20491;-74
2021/04/29 04:53:14;;;;;;;2.20;2.00;;;;;;;;;;4953944;29;20067;-74
2021/04/29 04:55:47;;;;;;;2.40;1.92;;;;;;;;;;4953541;29;20102;-75
2021/04/29 04:58:15;;;;;;;2.85;2.20;;;;;;;;;;4953975;29;20054;-75
2021/04/29 05:00:41;;;;;;;2.83;1.95;;;;;;;;;;4953765;29;20054;-74
2021/04/29 05:03:07;;;;;;;2.40;2.00;;;;;;;;;;4953747;29;20051;-75
2021/04/29 05:05:33;;;;;;;2.17;1.98;;;;;;;;;;4953559;29;20055;-74
2021/04/29 05:08:01;;;;;;;2.78;2.10;;;;;;;;;;4953197;29;20051;-75
2021/04/29 05:10:31;;;;;;;4.03;1.77;;;;;;;;;;4944065;28;20051;-72
2021/04/29 05:12:57;;;;;;;2.92;2.10;;;;;;;;;;4939783;29;20071;-73
2021/04/29 05:15:23;;;;;;;2.72;1.98;;;;;;;;;;4924607;29;20581;-73
2021/04/29 05:17:51;;;;;;;2.05;1.83;;;;;;;;;;4944346;29;20109;-73
2021/04/29 05:20:17;;;;;;;2.38;2.10;;;;;;;;;;4942058;29;20052;-72
2021/04/29 05:22:43;;;;;;;2.72;1.60;;;;;;;;;;4945811;29;20102;-71
2021/04/29 05:25:10;;;;;;;1.60;1.40;;;;;;;;;;4940776;29;20502;-72
2021/04/29 05:27:36;;;;;;;2.72;1.50;;;;;;;;;;4940346;29;20131;-71
2021/04/29 05:30:04;;;;;;;1.40;1.17;;;;;;;;;;4942200;29;20507;-71
2021/04/29 05:32:30;;;;;;;2.90;1.50;;;;;;;;;;4921881;29;20079;-72
2021/04/29 05:34:56;;;;;;;2.40;1.30;;;;;;;;;;4941066;29;20047;-72
2021/04/29 05:37:24;;;;;;;3.17;1.65;;;;;;;;;;4941997;29;20051;-71
2021/04/29 05:39:52;;;;;;;2.00;1.63;;;;;;;;;;4938345;29;20130;-71
2021/04/29 05:42:18;;;;;;;1.90;1.70;;;;;;;;;;4932550;29;20565;-71
2021/04/29 05:44:44;;;;;;;2.88;1.45;;;;;;;;;;4931710;29;20497;-72
2021/04/29 05:47:10;;;;;;;2.45;1.83;;;;;;;;;;4940310;29;20051;-71
2021/04/29 05:49:42;;;;;;;1.98;1.63;;;;;;;;;;4941963;29;20070;-71
2021/04/29 05:52:11;;;;;;;1.83;1.58;;;;;;;;;;4939034;29;20415;-71
2021/04/29 05:54:38;;;;;;;2.40;1.60;;;;;;;;;;4938611;29;20091;-71
2021/04/29 05:57:04;;;;;;;2.30;1.83;;;;;;;;;;4937531;29;20047;-71
2021/04/29 05:59:32;;;;;;;5.50;2.17;;;;;;;;;;4940402;29;20066;-70
2021/04/29 06:01:58;;;;;;;2.10;1.90;;;;;;;;;;4942178;29;20514;-71
2021/04/29 06:04:41;;;;;;;4.72;2.15;;;;;;;;;;4944821;28;20059;-69
2021/04/29 06:07:08;;;;;;;3.75;2.45;;;;;;;;;;4939327;29;20096;-68
2021/04/29 06:09:34;;;;;;;2.20;1.90;;;;;;;;;;4943302;28;20812;-69
2021/04/29 06:12:01;;;;;;;3.90;2.17;;;;;;;;;;4939251;29;20055;-69
2021/04/29 06:14:27;;;;;;;5.50;2.55;;;;;;;;;;4940189;29;20477;-69
2021/04/29 06:16:54;;;;;;;2.78;2.10;;;;;;;;;;4938859;29;20087;-69
2021/04/29 06:19:21;;;;;;;3.25;2.20;;;;;;;;;;4923243;29;20458;-71
2021/04/29 06:21:47;;;;;;;4.05;2.28;;;;;;;;;;4921433;29;20118;-72
2021/04/29 06:24:14;;;;;;;2.47;2.25;;;;;;;;;;4941278;29;20106;-72
2021/04/29 06:26:41;;;;;;;4.55;2.58;;;;;;;;;;4936079;29;20113;-72
2021/04/29 06:29:08;;;;;;;3.78;2.22;;;;;;;;;;4946265;29;20086;-72
2021/04/29 06:31:36;;;;;;;3.28;2.42;;;;;;;;;;4948603;29;20067;-71
2021/04/29 06:34:03;;;;;;;7.30;3.60;;;;;;;;;;4950102;29;20058;-71
2021/04/29 06:36:30;;;;;;;4.90;3.70;;;;;;;;;;4948115;29;20075;-71
2021/04/29 06:38:57;;;;;;;4.07;2.38;;;;;;;;;;4949786;29;20498;-71
2021/04/29 06:41:23;;;;;;;4.05;3.10;;;;;;;;;;4945266;29;20055;-71
2021/04/29 06:43:49;;;;;;;4.05;2.70;;;;;;;;;;4949025;29;20075;-70
2021/04/29 06:46:15;;;;;;;4.25;2.72;;;;;;;;;;4943407;29;20055;-70
2021/04/29 06:48:41;;;;;;;3.20;2.28;;;;;;;;;;4941240;29;20061;-71
2021/04/29 06:51:07;;;;;;;2.92;2.30;;;;;;;;;;4940823;29;20082;-69
2021/04/29 06:53:47;;;;;;;5.72;3.00;;;;;;;;;;4940219;29;20047;-70
2021/04/29 06:56:13;;;;;;;6.45;3.67;;;;;;;;;;4941164;29;20083;-70
2021/04/29 06:58:39;;;;;;;5.20;3.13;;;;;;;;;;4941404;29;20055;-70
2021/04/29 07:01:05;;;;;;;4.63;2.72;;;;;;;;;;4942961;29;20110;-70
2021/04/29 07:03:31;;;;;;;4.05;3.03;;;;;;;;;;4941811;29;20047;-69
2021/04/29 07:05:57;;;;;;;6.15;2.92;;;;;;;;;;4942970;29;20417;-69
2021/04/29 07:08:23;;;;;;;8.10;3.08;;;;;;;;;;4941815;29;20079;-66
2021/04/29 07:10:49;;;;;;;4.03;3.00;;;;;;;;;;4942517;29;20083;-67
2021/04/29 07:13:16;;;;;;;6.88;4.45;;;;;;;;;;4945098;29;20048;-66
2021/04/29 07:15:42;;;;;;;5.40;4.10;;;;;;;;;;4943267;29;20114;-68
2021/04/29 07:18:10;;;;;;;4.15;3.33;;;;;;;;;;4942815;29;20056;-70
2021/04/29 07:20:37;;;;;;;6.93;3.78;;;;;;;;;;4943774;29;20055;-70
2021/04/29 07:23:04;;;;;;;6.18;3.60;;;;;;;;;;4943651;29;20055;-69
2021/04/29 07:25:31;;;;;;;6.72;4.20;;;;;;;;;;4941651;29;20514;-69
2021/04/29 07:27:57;;;;;;;5.00;3.90;;;;;;;;;;4942807;29;20477;-68
2021/04/29 07:30:23;;;;;;;7.15;4.70;;;;;;;;;;4944397;29;20047;-69
2021/04/29 07:32:49;;;;;;;6.60;4.05;;;;;;;;;;4959731;28;20173;-69
2021/04/29 07:35:16;;;;;;;6.05;4.03;;;;;;;;;;4943809;29;20056;-69
2021/04/29 07:37:42;;;;;;;5.68;4.10;;;;;;;;;;4942874;29;20052;-68
2021/04/29 07:40:08;;;;;;;7.75;4.28;;;;;;;;;;4942201;29;20051;-70
2021/04/29 07:42:34;;;;;;;9.00;4.47;;;;;;;;;;4957440;28;20442;-68
2021/04/29 07:45:01;;;;;;;9.18;4.28;;;;;;;;;;4939314;29;20346;-71
2021/04/29 07:47:27;;;;;;;7.78;4.15;;;;;;;;;;4946637;29;20063;-69
2021/04/29 07:49:53;;;;;;;5.97;4.10;;;;;;;;;;4947628;29;20110;-71
2021/04/29 07:52:19;;;;;;;5.22;3.67;;;;;;;;;;4947125;29;20082;-72
2021/04/29 07:54:45;;;;;;;7.00;3.85;;;;;;;;;;4943745;29;20058;-70
2021/04/29 07:57:12;;;;;;;9.10;4.53;;;;;;;;;;4941179;29;20051;-71
2021/04/29 07:59:38;;;;;;;6.10;4.30;;;;;;;;;;4943387;29;20047;-69
2021/04/29 08:02:04;;;;;;;5.03;4.53;;;;;;;;;;4941792;29;20125;-69
2021/04/29 08:04:32;;;;;;;5.25;4.68;;;;;;;;;;4943638;29;20094;-69
2021/04/29 08:06:58;;;;;;;9.27;5.07;;;;;;;;;;4941183;29;20058;-68
2021/04/29 08:09:24;;;;;;;4.75;4.25;;;;;;;;;;4933065;29;20075;-68
2021/04/29 08:11:51;;;;;;;8.45;4.78;;;;;;;;;;4941638;29;20051;-70
2021/04/29 08:14:17;;;;;;;9.13;4.38;;;;;;;;;;4943158;29;20051;-72
2021/04/29 08:16:44;;;;;;;5.63;4.35;;;;;;;;;;4944303;29;20051;-72
2021/04/29 08:19:11;;;;;;;6.68;4.25;;;;;;;;;;4925968;29;20148;-72
2021/04/29 08:21:46;;;;;;;7.35;4.32;;;;;;;;;;4940723;29;20055;-71
2021/04/29 08:24:12;;;;;;;6.05;4.50;;;;;;;;;;4941414;29;20086;-71
2021/04/29 08:26:39;;;;;;;7.93;4.72;;;;;;;;;;4939096;29;20047;-71
2021/04/29 08:29:05;;;;;;;7.43;4.60;;;;;;;;;;4943084;29;20121;-71
2021/04/29 08:31:31;;;;;;;8.73;5.32;;;;;;;;;;4940873;29;20051;-71
2021/04/29 08:33:58;;;;;;;7.35;4.93;;;;;;;;;;4941844;29;20047;-71
2021/04/29 08:36:24;;;;;;;7.30;5.90;;;;;;;;;;4939379;29;20051;-72
2021/04/29 08:38:50;;;;;;;7.43;5.00;;;;;;;;;;4941527;29;20059;-71
2021/04/29 08:41:19;;;;;;;5.72;4.63;;;;;;;;;;4939542;29;20450;-71
2021/04/29 08:43:45;;;;;;;7.82;4.97;;;;;;;;;;4943338;28;20051;-71
2021/04/29 08:46:11;;;;;;;7.00;5.03;;;;;;;;;;4938903;29;20051;-70
2021/04/29 08:48:37;;;;;;;8.63;5.00;;;;;;;;;;4940870;29;20051;-71
2021/04/29 08:51:03;;;;;;;5.95;5.28;;;;;;;;;;4932871;29;21141;-71
2021/04/29 08:53:29;;;;;;;8.43;5.15;;;;;;;;;;4935477;29;20107;-71
2021/04/29 08:55:56;;;;;;;6.50;5.40;;;;;;;;;;4943958;29;20438;-72
2021/04/29 08:58:22;;;;;;;6.43;4.82;;;;;;;;;;4937956;29;20051;-71
2021/04/29 09:01:01;;;;;;;7.95;5.13;;;;;;;;;;4941411;29;20521;-70
2021/04/29 09:03:29;;;;;;;7.68;5.45;;;;;;;;;;4944979;29;20047;-71
2021/04/29 09:05:59;;;;;;;6.22;4.88;;;;;;;;;;4942832;29;20501;-71
2021/04/29 09:08:29;;;;;;;9.15;5.30;;;;;;;;;;4940102;29;20506;-72
2021/04/29 09:11:07;;;;;;;7.75;5.57;;;;;;;;;;4942447;29;20112;-70
2021/04/29 09:13:33;;;;;;;7.93;5.55;;;;;;;;;;4923216;29;20111;-71
2021/04/29 09:16:08;;;;;;;6.90;5.15;;;;;;;;;;4943588;29;20051;-71
2021/04/29 09:18:35;;;;;;;9.18;6.15;;;;;;;;;;4942331;29;20064;-71
2021/04/29 09:21:11;;;;;;;6.93;5.85;;;;;;;;;;4932718;29;20664;-70
2021/04/29 09:23:40;;;;;;;6.20;5.18;;;;;;;;;;4935813;29;20058;-71
2021/04/29 09:26:08;;;;;;;7.35;5.75;;;;;;;;;;4943195;29;20502;-71
2021/04/29 09:28:38;;;;;;;9.60;5.72;;;;;;;;;;4939321;29;20110;-71
2021/04/29 09:31:15;;;;;;;8.48;5.70;;;;;;;;;;4941006;29;20047;-71
2021/04/29 09:33:43;;;;;;;9.07;5.88;;;;;;;;;;4944623;29;20106;-70
2021/04/29 09:36:22;;;;;;;11.38;6.93;;;;;;;;;;4938825;29;20118;-71
2021/04/29 09:38:53;;;;;;;7.38;6.55;;;;;;;;;;4938466;29;20110;-70
2021/04/29 09:41:24;;;;;;;7.50;6.43;;;;;;;;;;4959063;23;20696;-69
2021/04/29 09:43:54;;;;;;;9.45;7.13;;;;;;;;;;4912559;29;20043;-69
2021/04/29 09:46:21;;;;;;;11.38;7.70;;;;;;;;;;4912835;29;20055;-70
2021/04/29 09:48:49;;;;;;;9.05;6.50;;;;;;;;;;4902702;29;20052;-69
2021/04/29 09:51:17;;;;;;;8.20;7.10;;;;;;;;;;4915420;29;20150;-70
2021/04/29 09:53:49;;;;;;;9.88;6.32;;;;;;;;;;4932219;29;20044;-70
2021/04/29 09:56:17;;;;;;;7.15;6.13;;;;;;;;;;4914676;29;20574;-73
2021/04/29 09:58:46;;;;;;;8.52;6.18;;;;;;;;;;4899621;29;20602;-72
2021/04/29 10:01:13;;;;;;;10.90;6.35;;;;;;;;;;4879296;29;20044;-68
2021/04/29 10:03:42;;;;;;;8.98;5.70;;;;;;;;;;4903243;29;20126;-70
2021/04/29 10:06:11;;;;;;;7.72;6.15;;;;;;;;;;4911304;29;20056;-71
2021/04/29 10:08:37;;;;;;;8.95;5.85;;;;;;;;;;4903336;29;20110;-71
2021/04/29 10:11:04;;;;;;;10.18;6.13;;;;;;;;;;4880712;29;20052;-72
2021/04/29 10:13:33;;;;;;;8.10;6.35;;;;;;;;;;4935646;29;20040;-69
2021/04/29 10:16:00;;;;;;;7.85;6.50;;;;;;;;;;4909535;29;20056;-69
2021/04/29 10:18:26;;;;;;;8.45;6.80;;;;;;;;;;4919135;29;20455;-70
2021/04/29 10:20:55;;;;;;;11.90;7.50;;;;;;;;;;4918412;29;20083;-69
2021/04/29 10:23:22;;;;;;;9.02;6.47;;;;;;;;;;4903201;29;20047;-69
2021/04/29 10:25:51;;;;;;;8.77;6.93;;;;;;;;;;4898326;29;20530;-70
2021/04/29 10:28:38;;;;;;;6.82;6.20;;;;;;;;;;4919136;29;20052;-70
2021/04/29 10:31:16;;;;;;;9.45;6.20;;;;;;;;;;4908425;29;20107;-70
2021/04/29 10:33:52;;;;;;;9.07;6.35;;;;;;;;;;4939609;29;20047;-70
2021/04/29 10:36:20;;;;;;;6.78;5.70;;;;;;;;;;4910338;29;20555;-70
2021/04/29 10:38:46;;;;;;;7.43;5.25;;;;;;;;;;4908596;29;20106;-70
2021/04/29 10:41:24;;;;;;;6.57;5.18;;;;;;;;;;4891288;29;20051;-70
2021/04/29 10:43:52;;;;;;;8.32;5.70;;;;;;;;;;4923064;29;20051;-70
2021/04/29 10:46:26;;;;;;;7.18;5.13;;;;;;;;;;4902529;29;20079;-69
2021/04/29 10:48:52;;;;;;;6.18;5.28;;;;;;;;;;4918860;29;20051;-71
2021/04/29 10:51:21;;;;;;;10.40;5.38;;;;;;;;;;4904023;29;20091;-70
2021/04/29 10:53:47;;;;;;;7.22;5.45;;;;;;;;;;4894551;29;20112;-71
2021/04/29 10:56:15;;;;;;;6.18;5.30;;;;;;;;;;4910943;29;20052;-72
2021/04/29 10:58:41;;;;;;;7.80;4.90;;;;;;;;;;4935839;29;20083;-72
2021/04/29 11:01:15;;;;;;;7.70;4.95;;;;;;;;;;4917918;29;20053;-73
2021/04/29 11:03:46;;;;;;;5.72;4.65;;;;;;;;;;4923067;29;20514;-72
2021/04/29 11:06:16;;;;;;;7.07;4.22;;;;;;;;;;4903607;29;20430;-70
2021/04/29 11:08:47;;;;;;;4.75;3.85;;;;;;;;;;4918223;29;20059;-72
2021/04/29 11:11:30;;;;;;;5.07;3.70;;;;;;;;;;4914808;29;20083;-72
2021/04/29 11:14:02;;;;;;;4.97;3.63;;;;;;;;;;4900602;29;20084;-72
2021/04/29 11:16:29;;;;;;;5.75;4.40;;;;;;;;;;4934138;29;20103;-73
2021/04/29 11:18:55;;;;;;;5.97;3.92;;;;;;;;;;4911528;29;20059;-72
2021/04/29 11:21:27;;;;;;;7.35;4.03;;;;;;;;;;4915263;29;20459;-72
2021/04/29 11:23:53;;;;;;;7.25;3.70;;;;;;;;;;4902105;29;20496;-72
2021/04/29 11:26:21;;;;;;;4.30;3.67;;;;;;;;;;4901556;29;20052;-72
2021/04/29 11:28:50;;;;;;;4.60;3.75;;;;;;;;;;4917909;29;20044;-72
2021/04/29 11:31:18;;;;;;;8.30;3.75;;;;;;;;;;4918046;29;20055;-72
2021/04/29 11:33:48;;;;;;;4.30;3.90;;;;;;;;;;4918251;29;20047;-72
2021/04/29 11:36:18;;;;;;;4.43;3.65;;;;;;;;;;4917628;29;20055;-71
2021/04/29 11:38:54;;;;;;;4.10;3.47;;;;;;;;;;4913399;29;20111;-72
2021/04/29 11:41:21;;;;;;;4.32;3.65;;;;;;;;;;4918022;29;20118;-72
2021/04/29 11:44:01;;;;;;;7.00;4.72;;;;;;;;;;4932803;29;20111;-72
2021/04/29 11:46:28;;;;;;;4.10;3.47;;;;;;;;;;4917000;29;20110;-72
2021/04/29 11:49:02;;;;;;;6.05;4.07;;;;;;;;;;4934534;29;20463;-72
2021/04/29 11:51:29;;;;;;;6.03;3.88;;;;;;;;;;4902977;29;20055;-72
2021/04/29 11:54:06;;;;;;;7.78;4.18;;;;;;;;;;4918643;29;20510;-71
2021/04/29 11:56:36;;;;;;;5.38;4.07;;;;;;;;;;4902406;29;20083;-72
2021/04/29 11:59:04;;;;;;;5.45;3.90;;;;;;;;;;4903273;29;20056;-72
2021/04/29 12:01:31;;;;;;;4.35;3.80;;;;;;;;;;4902990;29;20110;-72
2021/04/29 12:04:00;;;;;;;4.65;3.58;;;;;;;;;;4906318;29;20058;-70
2021/04/29 12:06:26;;;;;;;7.47;4.80;;;;;;;;;;4915263;29;20051;-72
2021/04/29 12:08:52;;;;;;;3.50;3.20;;;;;;;;;;4901703;29;20051;-71
2021/04/29 12:11:18;;;;;;;9.35;3.55;;;;;;;;;;4933787;29;20056;-72
2021/04/29 12:13:49;;;;;;;4.63;3.17;;;;;;;;;;4934170;29;20052;-72
2021/04/29 12:16:25;;;;;;;4.45;3.63;;;;;;;;;;4901308;29;20456;-72
2021/04/29 12:18:53;;;;;;;4.07;3.70;;;;;;;;;;4910033;29;20052;-73
2021/04/29 12:21:21;;;;;;;3.83;3.35;;;;;;;;;;4900786;29;20161;-73
2021/04/29 12:23:57;;;;;;;4.25;2.95;;;;;;;;;;4930221;29;20043;-72
2021/04/29 12:26:42;;;;;;;4.13;3.17;;;;;;;;;;4933120;29;20047;-72
2021/04/29 12:29:08;;;;;;;4.18;2.53;;;;;;;;;;4916593;29;20052;-72
2021/04/29 12:31:39;;;;;;;4.80;2.80;;;;;;;;;;4915842;29;20063;-72
2021/04/29 12:34:07;;;;;;;2.95;2.58;;;;;;;;;;4915218;29;20045;-73
2021/04/29 12:36:53;;;;;;;5.47;3.17;;;;;;;;;;4898635;29;20143;-70
2021/04/29 12:39:21;;;;;;;3.92;3.10;;;;;;;;;;4905160;29;20055;-70
2021/04/29 12:42:07;;;;;;;5.03;2.97;;;;;;;;;;4901857;29;20060;-70
2021/04/29 12:44:38;;;;;;;3.65;2.83;;;;;;;;;;4895973;29;20126;-69
2021/04/29 12:47:04;;;;;;;5.43;3.08;;;;;;;;;;4933318;29;20062;-71
2021/04/29 12:49:31;;;;;;;8.15;3.33;;;;;;;;;;4933150;29;20055;-71
2021/04/29 12:52:08;;;;;;;5.53;3.28;;;;;;;;;;4907177;29;20461;-70
2021/04/29 12:54:34;;;;;;;3.50;3.00;;;;;;;;;;4915500;29;20051;-72
2021/04/29 12:57:02;;;;;;;4.63;3.60;;;;;;;;;;4908343;29;20051;-71
2021/04/29 12:59:28;;;;;;;5.05;3.65;;;;;;;;;;4901063;29;20059;-72
2021/04/29 13:02:06;;;;;;;4.22;3.83;;;;;;;;;;4885673;29;20059;-72
2021/04/29 13:04:33;;;;;;;5.38;3.80;;;;;;;;;;4927616;29;20043;-71
2021/04/29 13:07:03;;;;;;;5.47;4.10;;;;;;;;;;4885256;29;20099;-72
2021/04/29 13:09:31;;;;;;;5.13;4.13;;;;;;;;;;4916595;29;20055;-71
2021/04/29 13:12:05;;;;;;;5.63;4.60;;;;;;;;;;4911317;29;20052;-72
2021/04/29 13:14:32;;;;;;;4.82;3.55;;;;;;;;;;4916352;29;20048;-71
2021/04/29 13:16:59;;;;;;;6.93;4.32;;;;;;;;;;4912056;29;20122;-71
2021/04/29 13:19:27;;;;;;;4.47;3.22;;;;;;;;;;4916449;29;20090;-71
2021/04/29 13:21:53;;;;;;;4.82;3.13;;;;;;;;;;4900259;29;20466;-71
2021/04/29 13:24:19;;;;;;;7.43;3.33;;;;;;;;;;4915271;29;20044;-72
2021/04/29 13:27:11;;;;;;;6.10;3.33;;;;;;;;;;4899760;29;20126;-71
2021/04/29 13:29:39;;;;;;;4.05;3.13;;;;;;;;;;4928054;29;20075;-71
2021/04/29 13:32:05;;;;;;;4.25;3.67;;;;;;;;;;4919398;29;20561;-71
2021/04/29 13:34:31;;;;;;;5.07;3.47;;;;;;;;;;4919762;29;20052;-71
2021/04/29 13:36:57;;;;;;;6.05;3.30;;;;;;;;;;4919703;29;20459;-72
2021/04/29 13:39:24;;;;;;;4.93;3.97;;;;;;;;;;4919713;29;20055;-71
2021/04/29 13:41:51;;;;;;;10.35;3.85;;;;;;;;;;4896948;29;20056;-71
2021/04/29 13:44:17;;;;;;;4.50;4.10;;;;;;;;;;4919556;29;20054;-72
2021/04/29 13:46:43;;;;;;;7.30;4.43;;;;;;;;;;4914140;29;20116;-72
2021/04/29 13:49:10;;;;;;;12.68;4.13;;;;;;;;;;4919473;29;20548;-71
2021/04/29 13:51:36;;;;;;;7.70;4.13;;;;;;;;;;4936571;29;20054;-72
2021/04/29 13:54:02;;;;;;;13.60;4.20;;;;;;;;;;4919601;29;20530;-69
2021/04/29 13:56:28;;;;;;;6.03;4.45;;;;;;;;;;4919250;29;20055;-69
2021/04/29 13:58:54;;;;;;;5.70;4.50;;;;;;;;;;4936180;29;20070;-69
2021/04/29 14:01:21;;;;;;;9.50;4.57;;;;;;;;;;4913525;29;20044;-70
2021/04/29 14:03:49;;;;;;;5.47;3.50;;;;;;;;;;4919195;29;20054;-69
2021/04/29 14:06:16;;;;;;;3.83;3.15;;;;;;;;;;4903939;29;20047;-70
2021/04/29 14:08:43;;;;;;;6.07;2.65;;;;;;;;;;4919388;29;20048;-71
2021/04/29 14:11:09;;;;;;;5.65;3.13;;;;;;;;;;4892107;29;20056;-71
2021/04/29 14:13:36;;;;;;;5.00;2.65;;;;;;;;;;4918457;29;20055;-70
2021/04/29 14:16:03;;;;;;;5.25;2.55;;;;;;;;;;4903541;29;20052;-71
2021/04/29 14:18:29;;;;;;;4.03;2.33;;;;;;;;;;4931672;29;20098;-71
2021/04/29 14:20:58;;;;;;;7.00;2.90;;;;;;;;;;4935518;29;20115;-69
2021/04/29 14:23:25;;;;;;;9.18;2.78;;;;;;;;;;4917331;29;20051;-70
2021/04/29 14:25:51;;;;;;;2.95;2.38;;;;;;;;;;4932808;29;20526;-71
2021/04/29 14:28:17;;;;;;;6.20;2.05;;;;;;;;;;4932422;29;20043;-70
2021/04/29 14:30:43;;;;;;;4.43;2.63;;;;;;;;;;4933320;29;20471;-70
2021/04/29 14:33:09;;;;;;;3.92;2.28;;;;;;;;;;4933796;29;20126;-70
2021/04/29 14:35:35;;;;;;;2.53;1.90;;;;;;;;;;4932603;29;20138;-70
2021/04/29 14:38:02;;;;;;;3.65;2.42;;;;;;;;;;4900413;29;20044;-70
2021/04/29 14:40:28;;;;;;;3.65;2.67;;;;;;;;;;4910423;29;20079;-71
2021/04/29 14:42:54;;;;;;;5.47;2.67;;;;;;;;;;4915443;29;20060;-71